Dades meteomassalio
Diari Summary for Febrer 1, 2017 Units:  Metric    English   Both
« Previous Day
Next Day »
Diari Semanal Mensual Anual Personalitzat
  Maxima: Minima: Mijana:
Temperatura: -17.8 °C -16.8 °C -13.4 °C
Rosada: -17.8 °C -17.3 °C -14.7 °C
Humitat: Humidity % 63 % 86 %
Velocitat del vent: 0 km/h 0 km/h 1.4 km/h
Racha vent: 0 km/h - -
Vent:- - ESE
Pressio: 0 hPa 34395 hPa -
Pluja: 7.62 mm    
Historical Graphs
 
 
Tabular Data for Febrer 1, 2017
Time Temperature Dew Point Pressure Wind Wind Speed Wind Gust Humidity Rainfall Rate (Hourly) solar Conditions
-17.8 °C -17.8 °C 0 hPa Calm     Humidity % 0 mm SolarRadiationWatts/m^2 W/m2 Conditions
00:03 -14.9 °C -15.5 °C 34486.4 hPa Calm     92 % 0 mm 0.0 W/m2 RA
00:08 -14.9 °C -15.5 °C 34486.4 hPa Calm     93 % 0 mm 0.0 W/m2 CLR
00:13 -14.9 °C -15.6 °C 34486.4 hPa Calm     93 % 0 mm 0.0 W/m2 CLR
00:18 -15.1 °C -15.7 °C 34486.4 hPa Calm     92 % 0 mm 0.0 W/m2 CLR
00:23 -15.1 °C -15.6 °C 34486.4 hPa Calm     93 % 0 mm 0.0 W/m2 CLR
00:28 -15.1 °C -15.6 °C 34486.4 hPa Calm     93 % 0 mm 0.0 W/m2 CLR
00:33 -15.1 °C -15.7 °C 34496.6 hPa Calm     93 % 0 mm 0.0 W/m2 CLR
00:38 -15.2 °C -15.7 °C 34496.6 hPa Calm     93 % 0 mm 0.0 W/m2 CLR
00:43 -15.2 °C -15.8 °C 34496.6 hPa Calm     93 % 0 mm 0.0 W/m2 CLR
00:48 -15.3 °C -15.9 °C 34496.6 hPa Calm     93 % 0 mm 0.0 W/m2 CLR
00:53 -15.3 °C -15.9 °C 34496.6 hPa Calm     93 % 0 mm 0.0 W/m2 CLR
00:58 -15.4 °C -15.9 °C 34496.6 hPa Calm     93 % 0 mm 0.0 W/m2 CLR
01:03 -15.4 °C -16 °C 34496.6 hPa Calm     93 % 0 mm 0.0 W/m2 CLR
01:08 -15.4 °C -16.1 °C 34496.6 hPa Calm     93 % 0 mm 0.0 W/m2 CLR
01:13 -15.5 °C -16.1 °C 34496.6 hPa Calm     93 % 0 mm 0.0 W/m2 CLR
01:18 -15.5 °C -16.1 °C 34496.6 hPa Calm     93 % 0 mm 0.0 W/m2 CLR
01:23 -15.5 °C -16.1 °C 34496.6 hPa Calm     93 % 0 mm 0.0 W/m2 CLR
01:28 -15.4 °C -16.1 °C 34496.6 hPa Calm     93 % 0 mm 0.0 W/m2 CLR
01:33 -15.4 °C -16 °C 34496.6 hPa Calm     93 % 0 mm 0.0 W/m2 CLR
01:38 -15.5 °C -16.1 °C 34496.6 hPa Calm     93 % 0 mm 0.0 W/m2 CLR
01:43 -15.6 °C -16.2 °C 34496.6 hPa Calm     93 % 0 mm 0.0 W/m2 CLR
01:48 -15.7 °C -16.3 °C 34496.6 hPa Calm     93 % 0 mm 0.0 W/m2 CLR
01:53 -15.7 °C -16.3 °C 34496.6 hPa Calm     93 % 0 mm 0.0 W/m2 CLR
01:58 -15.7 °C -16.3 °C 34496.6 hPa Calm     93 % 0 mm 0.0 W/m2 CLR
02:03 -15.7 °C -16.3 °C 34496.6 hPa Calm     93 % 0 mm 0.0 W/m2 CLR
02:08 -15.7 °C -16.3 °C 34496.6 hPa Calm     93 % 0 mm 0.0 W/m2 CLR
02:13 -15.7 °C -16.3 °C 34496.6 hPa Calm     93 % 0 mm 0.0 W/m2 CLR
02:18 -15.8 °C -16.3 °C 34496.6 hPa Calm     93 % 0 mm 0.0 W/m2 CLR
02:23 -15.9 °C -16.4 °C 34496.6 hPa Calm     93 % 0 mm 0.0 W/m2 CLR
02:28 -15.9 °C -16.5 °C 34496.6 hPa Calm     93 % 0 mm 0.0 W/m2 CLR
02:33 -15.9 °C -16.5 °C 34496.6 hPa Calm     93 % 0 mm 0.0 W/m2 CLR
02:38 -15.9 °C -16.5 °C 34496.6 hPa Calm     93 % 0 mm 0.0 W/m2 CLR
02:43 -15.9 °C -16.5 °C 34496.6 hPa Calm     93 % 0 mm 0.0 W/m2 CLR
02:48 -15.9 °C -16.5 °C 34496.6 hPa Calm     93 % 0 mm 0.0 W/m2 CLR
02:53 -15.9 °C -16.5 °C 34496.6 hPa Calm     93 % 0 mm 0.0 W/m2 CLR
02:58 -15.9 °C -16.5 °C 34496.6 hPa Calm     93 % 0 mm 0.0 W/m2 CLR
03:03 -16.1 °C -16.6 °C 34496.6 hPa Calm     93 % 0 mm 0.0 W/m2 CLR
03:08 -16.1 °C -16.6 °C 34496.6 hPa Calm     93 % 0 mm 0.0 W/m2 CLR
03:13 -16.1 °C -16.7 °C 34496.6 hPa Calm     93 % 0 mm 0.0 W/m2 CLR
03:18 -16.2 °C -16.7 °C 34496.6 hPa Calm     93 % 0 mm 0.0 W/m2 CLR
03:23 -16.2 °C -16.7 °C 34496.6 hPa Calm     93 % 0 mm 0.0 W/m2 CLR
03:28 -16.2 °C -16.7 °C 34496.6 hPa Calm     93 % 0 mm 0.0 W/m2 CLR
03:33 -16.1 °C -16.6 °C 34496.6 hPa Calm     94 % 0 mm 0.0 W/m2 CLR
03:38 -16.1 °C -16.6 °C 34496.6 hPa Calm     93 % 0 mm 0.0 W/m2 CLR
03:43 -16 °C -16.5 °C 34496.6 hPa Calm     94 % 0 mm 0.0 W/m2 CLR
03:48 -15.9 °C -16.4 °C 34496.6 hPa Calm     94 % 0 mm 0.0 W/m2 CLR
03:53 -15.9 °C -16.4 °C 34496.6 hPa Calm     94 % 0 mm 0.0 W/m2 CLR
03:58 -16 °C -16.6 °C 34496.6 hPa Calm     93 % 0 mm 0.0 W/m2 CLR
04:03 -16.2 °C -16.7 °C 34496.6 hPa Calm     93 % 0 mm 0.0 W/m2 CLR
04:08 -16.2 °C -16.8 °C 34496.6 hPa Calm     93 % 0 mm 0.0 W/m2 CLR
04:13 -16.3 °C -16.8 °C 34496.6 hPa Calm     93 % 0 mm 0.0 W/m2 CLR
04:18 -16.3 °C -16.8 °C 34486.4 hPa Calm     93 % 0 mm 0.0 W/m2 CLR
04:23 -16.3 °C -16.9 °C 34486.4 hPa Calm     93 % 0 mm 0.0 W/m2 CLR
04:27 -16.4 °C -16.9 °C 34496.6 hPa Calm     93 % 0 mm 0.0 W/m2 CLR
04:32 -16.4 °C -17 °C 34496.6 hPa Calm     93 % 0 mm 0.0 W/m2 CLR
04:37 -16.4 °C -17 °C 34486.4 hPa Calm     93 % 0 mm 0.0 W/m2 CLR
04:42 -16.4 °C -17 °C 34486.4 hPa Calm     93 % 0 mm 0.0 W/m2 CLR
04:47 -16.4 °C -16.9 °C 34496.6 hPa Calm     93 % 0 mm 0.0 W/m2 CLR
04:52 -16.4 °C -17 °C 34496.6 hPa Calm     93 % 0 mm 0.0 W/m2 CLR
04:57 -16.4 °C -16.9 °C 34496.6 hPa Calm     94 % 0 mm 0.0 W/m2 CLR
05:02 -16.4 °C -16.9 °C 34496.6 hPa Calm     94 % 0 mm 0.0 W/m2 CLR
05:07 -16.3 °C -16.8 °C 34496.6 hPa Calm     94 % 0 mm 0.0 W/m2 CLR
05:12 -16.2 °C -16.6 °C 34496.6 hPa Calm     94 % 0 mm 0.0 W/m2 CLR
05:17 -16.1 °C -16.6 °C 34496.6 hPa Calm     94 % 0 mm 0.0 W/m2 CLR
05:22 -16.2 °C -16.6 °C 34510.1 hPa Calm     94 % 0 mm 0.0 W/m2 CLR
05:27 -16.2 °C -16.8 °C 34510.1 hPa Calm     93 % 0 mm 0.0 W/m2 CLR
05:32 -16.3 °C -16.8 °C 34510.1 hPa Calm     93 % 0 mm 0.0 W/m2 CLR
05:37 -16.3 °C -16.8 °C 34510.1 hPa Calm     94 % 0 mm 0.0 W/m2 CLR
05:42 -16.3 °C -16.8 °C 34510.1 hPa Calm     94 % 0 mm 0.0 W/m2 CLR
05:47 -16.3 °C -16.8 °C 34510.1 hPa Calm     94 % 0 mm 0.0 W/m2 CLR
05:52 -16.3 °C -16.8 °C 34510.1 hPa Calm     94 % 0 mm 0.0 W/m2 CLR
05:57 -16.3 °C -16.8 °C 34520.3 hPa Calm     94 % 0 mm 0.0 W/m2 CLR
06:02 -16.3 °C -16.8 °C 34520.3 hPa Calm     94 % 7.62 mm 0.0 W/m2 RA
06:07 -16.2 °C -16.7 °C 34510.1 hPa Calm     94 % 7.62 mm 0.0 W/m2 CLR
06:12 -16.3 °C -16.8 °C 34510.1 hPa Calm     94 % 7.62 mm 0.0 W/m2 CLR
06:17 -16.4 °C -16.9 °C 34510.1 hPa Calm     93 % 7.62 mm 0.0 W/m2 CLR
06:22 -16.4 °C -16.9 °C 34520.3 hPa Calm     94 % 7.62 mm 0.0 W/m2 CLR
06:27 -16.3 °C -16.8 °C 34520.3 hPa Calm     94 % 7.62 mm 0.0 W/m2 CLR
06:32 -16.4 °C -16.9 °C 34520.3 hPa Calm     94 % 7.62 mm 0.0 W/m2 CLR
06:37 -16.5 °C -17 °C 34520.3 hPa Calm     94 % 7.62 mm 0.0 W/m2 CLR
06:42 -16.6 °C -17.1 °C 34520.3 hPa Calm     93 % 7.62 mm 0.0 W/m2 CLR
06:47 -16.4 °C -16.9 °C 34510.1 hPa Calm     94 % 7.62 mm 0.0 W/m2 CLR
06:52 -16.3 °C -16.8 °C 34520.3 hPa Calm     94 % 7.62 mm 0.0 W/m2 CLR
06:57 -16.3 °C -16.8 °C 34520.3 hPa Calm     94 % 7.62 mm 0.0 W/m2 CLR
07:02 -16.3 °C -16.8 °C 34520.3 hPa Calm     94 % 0 mm 0.0 W/m2 CLR
07:07 -16.4 °C -16.9 °C 34520.3 hPa Calm     94 % 0 mm 0.0 W/m2 CLR
07:12 -16.6 °C -17.1 °C 34520.3 hPa Calm     93 % 0 mm 0.0 W/m2 CLR
07:17 -16.6 °C -17.1 °C 34520.3 hPa Calm     94 % 0 mm 0.0 W/m2 CLR
07:22 -16.6 °C -17.1 °C 34520.3 hPa Calm     94 % 0 mm 0.0 W/m2 CLR
07:27 -16.7 °C -17.2 °C 34520.3 hPa Calm     94 % 0 mm 0.0 W/m2 CLR
07:32 -16.8 °C -17.3 °C 34520.3 hPa Calm     93 % 0 mm 0.0 W/m2 CLR
07:37 -16.7 °C -17.2 °C 34520.3 hPa Calm     94 % 0 mm 0.0 W/m2 CLR
07:42 -16.6 °C -17.1 °C 34520.3 hPa Calm     94 % 0 mm 0.0 W/m2 CLR
07:47 -16.6 °C -17.1 °C 34520.3 hPa Calm     94 % 0 mm 0.0 W/m2 CLR
07:52 -16.8 °C -17.3 °C 34520.3 hPa Calm     94 % 0 mm 0.0 W/m2 CLR
07:57 -16.8 °C -17.3 °C 34520.3 hPa Calm     94 % 0 mm 0.0 W/m2 CLR
08:02 -16.8 °C -17.3 °C 34520.3 hPa Calm     94 % 0 mm 0.0 W/m2 OVC
08:07 -16.8 °C -17.3 °C 34520.3 hPa Calm     94 % 0 mm 0.0 W/m2 OVC
08:12 -16.8 °C -17.3 °C 34520.3 hPa Calm     94 % 0 mm 5.0 W/m2 OVC
08:17 -16.7 °C -17.2 °C 34520.3 hPa Calm     94 % 0 mm 9.0 W/m2 BKN
08:22 -16.7 °C -17.2 °C 34520.3 hPa Calm     94 % 0 mm 14.0 W/m2 BKN
08:27 -16.7 °C -17.2 °C 34520.3 hPa Calm     94 % 0 mm 21.0 W/m2 BKN
08:32 -16.6 °C -17.1 °C 34520.3 hPa Calm     94 % 0 mm 28.0 W/m2 BKN
08:37 -16.5 °C -17 °C 34520.3 hPa Calm     94 % 0 mm 33.0 W/m2 BKN
08:42 -16.4 °C -16.9 °C 34520.3 hPa Calm     94 % 0 mm 47.0 W/m2 SCT
08:47 -16.3 °C -16.8 °C 34520.3 hPa Calm     94 % 0 mm 58.0 W/m2 SCT
08:52 -16.2 °C -16.7 °C 34520.3 hPa Calm     94 % 0 mm 72.0 W/m2 FEW
08:57 -16 °C -16.5 °C 34520.3 hPa Calm     94 % 0 mm 77.0 W/m2 FEW
09:02 -15.8 °C -16.3 °C 34520.3 hPa Calm     94 % 0 mm 72.0 W/m2 FEW
09:07 -15.7 °C -16.2 °C 34520.3 hPa Calm     94 % 0 mm 91.0 W/m2 FEW
09:13 -15.6 °C -16.1 °C 34520.3 hPa Calm     94 % 0 mm 93.0 W/m2 FEW
09:18 -15.6 °C -16.1 °C 34510.1 hPa Calm     94 % 0 mm 100.0 W/m2 CLR
09:23 -15.5 °C -16 °C 34520.3 hPa Calm     94 % 0 mm 118.0 W/m2 CLR
09:28 -15.4 °C -15.9 °C 34520.3 hPa Calm     94 % 0 mm 97.0 W/m2 CLR
09:33 -15.4 °C -15.9 °C 34520.3 hPa Calm     94 % 0 mm 102.0 W/m2 CLR
09:38 -15.3 °C -15.8 °C 34520.3 hPa Calm     94 % 0 mm 111.0 W/m2 CLR
09:43 -15.4 °C -15.9 °C 34520.3 hPa Calm     94 % 0 mm 127.0 W/m2 CLR
09:48 -15.4 °C -15.9 °C 34520.3 hPa Calm     94 % 0 mm 176.0 W/m2 CLR
09:53 -15.3 °C -15.8 °C 34520.3 hPa Calm     94 % 0 mm 214.0 W/m2 CLR
09:58 -15.1 °C -15.6 °C 34510.1 hPa Calm     94 % 0 mm 338.0 W/m2 CLR
10:03 -14.8 °C -15.3 °C 34510.1 hPa Calm     94 % 0 mm 341.0 W/m2 CLR
10:08 -14.5 °C -15 °C 34510.1 hPa Calm     94 % 0 mm 394.0 W/m2 CLR
10:13 -14.2 °C -14.7 °C 34510.1 hPa Calm     94 % 0 mm 192.0 W/m2 CLR
10:18 -14 °C -14.5 °C 34520.3 hPa Calm     94 % 0 mm 185.0 W/m2 CLR
10:23 -13.9 °C -14.4 °C 34510.1 hPa Calm     94 % 0 mm 179.0 W/m2 CLR
10:28 -13.8 °C -14.3 °C 34520.3 hPa Calm     94 % 0 mm 172.0 W/m2 CLR
10:33 -13.8 °C -14.4 °C 34520.3 hPa Calm     93 % 0 mm 172.0 W/m2 CLR
10:38 -13.8 °C -14.4 °C 34510.1 hPa Calm     93 % 0 mm 181.0 W/m2 CLR
10:43 -13.8 °C -14.4 °C 34510.1 hPa Calm     93 % 0 mm 188.0 W/m2 CLR
10:48 -13.7 °C -14.4 °C 34510.1 hPa Calm     92 % 0 mm 193.0 W/m2 CLR
10:53 -13.7 °C -14.3 °C 34510.1 hPa Calm     92 % 0 mm 211.0 W/m2 CLR
10:58 -13.6 °C -14.3 °C 34510.1 hPa Calm     91 % 0 mm 209.0 W/m2 CLR
11:03 -13.4 °C -14.2 °C 34510.1 hPa Calm     91 % 0 mm 216.0 W/m2 CLR
11:08 -13.3 °C -14.2 °C 34510.1 hPa Calm     90 % 0 mm 221.0 W/m2 CLR
11:13 -13.2 °C -14 °C 34520.3 hPa Calm     91 % 0 mm 260.0 W/m2 CLR
11:18 -13.1 °C -13.9 °C 34510.1 hPa Calm     90 % 0 mm 260.0 W/m2 CLR
11:23 -12.9 °C -13.9 °C 34510.1 hPa Calm     89 % 0 mm 292.0 W/m2 CLR
11:28 -12.8 °C -13.8 °C 34520.3 hPa Calm     88 % 0 mm 258.0 W/m2 CLR
11:33 -12.7 °C -13.8 °C 34520.3 hPa Calm     88 % 0 mm 281.0 W/m2 CLR
11:38 -12.6 °C -13.6 °C 34510.1 hPa Calm     88 % 0 mm 278.0 W/m2 CLR
11:43 -12.4 °C -13.5 °C 34510.1 hPa Calm     88 % 0 mm 297.0 W/m2 CLR
11:49 -12.4 °C -13.4 °C 34510.1 hPa Calm     88 % 0 mm 313.0 W/m2 CLR
11:53 -12.3 °C -13.3 °C 34510.1 hPa Calm     88 % 0 mm 441.0 W/m2 CLR
11:59 -12.1 °C -13.2 °C 34510.1 hPa Calm     88 % 0 mm 415.0 W/m2 CLR
12:04 -12 °C -13 °C 34496.6 hPa NE 3.1 km/h   88 % 0 mm 283.0 W/m2 CLR
12:09 -11.9 °C -13.1 °C 34496.6 hPa Calm     87 % 0 mm 420.0 W/m2 CLR
12:14 -11.8 °C -12.9 °C 34496.6 hPa Calm     87 % 0 mm 397.0 W/m2 CLR
12:19 -11.8 °C -13 °C 34496.6 hPa Calm     86 % 0 mm 445.0 W/m2 CLR
12:24 -11.7 °C -12.9 °C 34496.6 hPa Calm     86 % 0 mm 506.0 W/m2 CLR
12:29 -11.5 °C -12.9 °C 34496.6 hPa NE 11.9 km/h 11.9 km/h 85 % 0 mm 515.0 W/m2 CLR
12:34 -11.4 °C -12.7 °C 34486.4 hPa ENE 9 km/h 9 km/h 85 % 0 mm 519.0 W/m2 CLR
12:39 -11.3 °C -12.7 °C 34486.4 hPa ENE 9 km/h   84 % 0 mm 519.0 W/m2 CLR
12:44 -11.1 °C -12.7 °C 34486.4 hPa ENE 10.3 km/h 10.3 km/h 83 % 0 mm 522.0 W/m2 CLR
12:49 -11.1 °C -12.7 °C 34486.4 hPa Calm     82 % 0 mm 524.0 W/m2 CLR
12:54 -11.1 °C -12.6 °C 34486.4 hPa NE 10.3 km/h 10.3 km/h 83 % 0 mm 524.0 W/m2 CLR
12:59 -11 °C -12.6 °C 34486.4 hPa ENE 11.9 km/h 11.9 km/h 83 % 0 mm 513.0 W/m2 CLR
13:04 -11.2 °C -12.7 °C 34486.4 hPa ENE 15 km/h 15 km/h 83 % 0 mm 522.0 W/m2 CLR
13:09 -11.2 °C -12.7 °C 34486.4 hPa NE 17.9 km/h 17.9 km/h 83 % 0 mm 522.0 W/m2 CLR
13:14 -11.2 °C -12.7 °C 34486.4 hPa NE 23.8 km/h 23.8 km/h 84 % 0 mm 526.0 W/m2 CLR
13:15 -11.3 °C -12.7 °C 34486.4 hPa NE 18.2 km/h 18.2 km/h 84 % 0 mm 527.0 W/m2 CLR
13:20 -11.3 °C -12.7 °C 34486.4 hPa ENE 15 km/h 15 km/h 85 % 0 mm 527.0 W/m2 CLR
13:25 -11.3 °C -12.6 °C 34486.4 hPa ENE 17.9 km/h 17.9 km/h 86 % 0 mm 527.0 W/m2 CLR
13:30 -11.2 °C -12.6 °C 34476.3 hPa ENE 17.9 km/h 17.9 km/h 85 % 0 mm 526.0 W/m2 CLR
13:35 -11.2 °C -12.6 °C 34476.3 hPa ENE 17.9 km/h 17.9 km/h 84 % 0 mm 524.0 W/m2 CLR
13:40 -11.1 °C -12.6 °C 34476.3 hPa ENE 17.9 km/h 17.9 km/h 84 % 0 mm 524.0 W/m2 CLR
13:45 -11.1 °C -12.5 °C 34476.3 hPa ENE 15 km/h 15 km/h 84 % 0 mm 520.0 W/m2 CLR
13:50 -11 °C -12.4 °C 34476.3 hPa ENE 15 km/h 15 km/h 84 % 0 mm 517.0 W/m2 CLR
13:55 -11.1 °C -12.6 °C 34476.3 hPa ENE 9 km/h 9 km/h 83 % 0 mm 512.0 W/m2 CLR
14:00 -11 °C -12.6 °C 34476.3 hPa Calm   1 km/h 83 % 0 mm 497.0 W/m2 CLR
14:05 -10.9 °C -12.5 °C 34476.3 hPa ENE 9 km/h 9 km/h 83 % 0 mm 501.0 W/m2 CLR
14:10 -10.9 °C -12.5 °C 34462.7 hPa ENE 11.9 km/h 11.9 km/h 83 % 0 mm 501.0 W/m2 CLR
14:15 -10.9 °C -12.6 °C 34462.7 hPa ENE 11.9 km/h 11.9 km/h 82 % 0 mm 503.0 W/m2 CLR
14:20 -10.9 °C -12.7 °C 34462.7 hPa ENE 9 km/h   81 % 0 mm 492.0 W/m2 CLR
14:25 -10.8 °C -12.6 °C 34462.7 hPa Calm     81 % 0 mm 487.0 W/m2 CLR
14:30 -10.7 °C -12.4 °C 34452.6 hPa NE 11.9 km/h 11.9 km/h 81 % 0 mm 496.0 W/m2 CLR
14:35 -10.6 °C -12.4 °C 34452.6 hPa Calm     81 % 0 mm 478.0 W/m2 CLR
14:40 -10.4 °C -12.3 °C 34452.6 hPa Calm     80 % 0 mm 461.0 W/m2 CLR
14:45 -10.3 °C -12.4 °C 34452.6 hPa Calm     78 % 0 mm 454.0 W/m2 CLR
14:50 -10.2 °C -12.4 °C 34442.4 hPa Calm     77 % 0 mm 424.0 W/m2 CLR
14:55 -10.2 °C -12.4 °C 34442.4 hPa Calm     77 % 0 mm 401.0 W/m2 CLR
15:00 -10.2 °C -12.6 °C 34442.4 hPa Calm     76 % 0 mm 388.0 W/m2 CLR
15:05 -10.2 °C -12.4 °C 34428.8 hPa Calm     76 % 0 mm 445.0 W/m2 CLR
15:10 -9.9 °C -12.4 °C 34428.8 hPa Calm     75 % 0 mm 399.0 W/m2 CLR
15:15 -9.7 °C -12.2 °C 34428.8 hPa Calm     75 % 0 mm 418.0 W/m2 CLR
15:20 -9.5 °C -12.3 °C 34418.7 hPa Calm     72 % 0 mm 410.0 W/m2 CLR
15:26 -9.4 °C -12.1 °C 34418.7 hPa Calm     73 % 0 mm 415.0 W/m2 CLR
15:31 -9.2 °C -12.3 °C 34418.7 hPa Calm     70 % 0 mm 345.0 W/m2 CLR
15:36 -9.1 °C -12.4 °C 34418.7 hPa Calm     68 % 0 mm 332.0 W/m2 CLR
15:41 -9.1 °C -12.3 °C 34418.7 hPa Calm     68 % 0 mm 269.0 W/m2 CLR
15:46 -9.1 °C -12.3 °C 34418.7 hPa Calm     69 % 0 mm 227.0 W/m2 CLR
15:51 -9 °C -12.4 °C 34418.7 hPa Calm     67 % 0 mm 211.0 W/m2 CLR
15:56 -9 °C -12.4 °C 34418.7 hPa Calm     67 % 0 mm 262.0 W/m2 CLR
16:01 -9 °C -12.6 °C 34418.7 hPa Calm     66 % 0 mm 315.0 W/m2 CLR
16:06 -9 °C -12.4 °C 34418.7 hPa Calm     67 % 0 mm 301.0 W/m2 CLR
16:11 -8.9 °C -12.3 °C 34405.1 hPa Calm     67 % 0 mm 278.0 W/m2 CLR
16:16 -8.8 °C -12.4 °C 34405.1 hPa Calm     66 % 0 mm 285.0 W/m2 CLR
16:21 -8.8 °C -12.4 °C 34405.1 hPa Calm     65 % 0 mm 255.0 W/m2 CLR
16:26 -8.8 °C -12.3 °C 34405.1 hPa Calm     66 % 0 mm 225.0 W/m2 CLR
16:28 -8.8 °C -12.3 °C 34405.1 hPa Calm     66 % 0 mm 209.0 W/m2 CLR
16:38 -8.7 °C -12.4 °C 34405.1 hPa Calm     65 % 0 mm 128.0 W/m2 CLR
16:43 -8.7 °C -12.4 °C 34405.1 hPa Calm     65 % 0 mm 88.0 W/m2 CLR
16:48 -8.8 °C -12.4 °C 34395 hPa NE 3.1 km/h   65 % 0 mm 98.0 W/m2 CLR
16:53 -8.9 °C -12.6 °C 34395 hPa ENE 3.1 km/h 3.1 km/h 65 % 0 mm 105.0 W/m2 CLR
16:58 -9 °C -12.7 °C 34395 hPa ESE 6 km/h 6 km/h 64 % 0 mm 100.0 W/m2 CLR
17:03 -9 °C -12.9 °C 34395 hPa Calm     63 % 0 mm 102.0 W/m2 CLR
17:08 -9 °C -12.6 °C 34395 hPa Calm     65 % 0 mm 90.0 W/m2 CLR
17:13 -8.9 °C -12.4 °C 34395 hPa Calm     66 % 0 mm 98.0 W/m2 CLR
17:18 -8.9 °C -12.4 °C 34395 hPa Calm     66 % 0 mm 134.0 W/m2 CLR
17:23 -8.8 °C -12.5 °C 34395 hPa Calm     65 % 0 mm 120.0 W/m2 CLR
17:28 -8.7 °C -12.6 °C 34395 hPa Calm     64 % 0 mm 97.0 W/m2 CLR
17:33 -8.7 °C -12.4 °C 34395 hPa Calm     64 % 0 mm 86.0 W/m2 CLR
17:38 -8.7 °C -12.4 °C 34395 hPa Calm     64 % 0 mm 69.0 W/m2 FEW
17:43 -8.7 °C -12.5 °C 34395 hPa Calm     64 % 0 mm 56.0 W/m2 SCT
17:48 -8.8 °C -12.6 °C 34405.1 hPa Calm     64 % 0 mm 39.0 W/m2 BKN
17:53 -8.9 °C -12.6 °C 34405.1 hPa Calm     65 % 0 mm 33.0 W/m2 BKN
17:58 -8.9 °C -12.4 °C 34405.1 hPa Calm     66 % 0 mm 26.0 W/m2 BKN
18:02 -9.1 °C -12.6 °C 34405.1 hPa Calm     66 % 0 mm 23.0 W/m2 BKN
18:07 -9.2 °C -12.6 °C 34405.1 hPa Calm     67 % 0 mm 19.0 W/m2 BKN
18:12 -9.3 °C -12.6 °C 34405.1 hPa Calm     68 % 0 mm 14.0 W/m2 BKN
18:17 -9.4 °C -12.6 °C 34405.1 hPa Calm     69 % 0 mm 11.0 W/m2 OVC
18:22 -9.6 °C -12.4 °C 34405.1 hPa Calm     71 % 0 mm 5.0 W/m2 OVC
18:27 -9.7 °C -12.4 °C 34405.1 hPa Calm     72 % 0 mm 0.0 W/m2 CLR
18:32 -9.8 °C -12.4 °C 34405.1 hPa Calm     73 % 0 mm 0.0 W/m2 CLR
18:37 -9.9 °C -12.6 °C 34405.1 hPa Calm     73 % 0 mm 0.0 W/m2 CLR
18:42 -10.2 °C -12.7 °C 34405.1 hPa Calm     74 % 0 mm 0.0 W/m2 CLR
18:47 -10.3 °C -12.7 °C 34418.7 hPa Calm     75 % 0 mm 0.0 W/m2 CLR
18:52 -10.4 °C -12.8 °C 34418.7 hPa Calm     76 % 0 mm 0.0 W/m2 CLR
18:53 -10.5 °C -12.7 °C 34418.7 hPa Calm     77 % 0 mm 0.0 W/m2 CLR
18:58 -10.6 °C -12.8 °C 34418.7 hPa Calm     77 % 0 mm 0.0 W/m2 CLR
19:03 -10.8 °C -12.8 °C 34418.7 hPa Calm     78 % 0 mm 0.0 W/m2 CLR
19:08 -10.9 °C -12.8 °C 34428.8 hPa Calm     79 % 0 mm 0.0 W/m2 CLR
19:13 -10.9 °C -12.8 °C 34428.8 hPa Calm     80 % 0 mm 0.0 W/m2 CLR
19:18 -11.2 °C -13.2 °C 34428.8 hPa Calm     79 % 0 mm 0.0 W/m2 CLR
19:23 -11.4 °C -13.3 °C 34428.8 hPa Calm     80 % 0 mm 0.0 W/m2 CLR
19:28 -11.7 °C -13.4 °C 34428.8 hPa Calm     81 % 0 mm 0.0 W/m2 CLR
19:33 -11.8 °C -13.3 °C 34428.8 hPa Calm     83 % 0 mm 0.0 W/m2 CLR
19:38 -11.9 °C -13.3 °C 34428.8 hPa Calm     84 % 0 mm 0.0 W/m2 CLR
19:43 -11.9 °C -13.3 °C 34442.4 hPa Calm     85 % 0 mm 0.0 W/m2 CLR
19:48 -11.9 °C -13.3 °C 34442.4 hPa Calm     85 % 0 mm 0.0 W/m2 CLR
19:53 -12 °C -13.3 °C 34442.4 hPa Calm     85 % 0 mm 0.0 W/m2 CLR
19:58 -12.1 °C -13.4 °C 34442.4 hPa Calm     85 % 0 mm 0.0 W/m2 CLR
20:03 -12.3 °C -13.7 °C 34442.4 hPa Calm     85 % 0 mm 0.0 W/m2 CLR
20:08 -12.5 °C -13.7 °C 34442.4 hPa Calm     86 % 0 mm 0.0 W/m2 CLR
20:13 -12.6 °C -13.6 °C 34452.6 hPa Calm     88 % 0 mm 0.0 W/m2 CLR
20:18 -12.6 °C -13.6 °C 34452.6 hPa West 10.3 km/h 10.3 km/h 88 % 0 mm 0.0 W/m2 CLR
20:23 -12.4 °C -13.3 °C 34452.6 hPa WNW 17.9 km/h 17.9 km/h 89 % 0 mm 0.0 W/m2 CLR
20:28 -12.3 °C -13.3 °C 34452.6 hPa NW 17.9 km/h 17.9 km/h 88 % 0 mm 0.0 W/m2 CLR
20:33 -12.3 °C -13.5 °C 34452.6 hPa WNW 10.3 km/h 10.3 km/h 87 % 0 mm 0.0 W/m2 CLR
20:38 -12.5 °C -13.7 °C 34452.6 hPa Calm     87 % 0 mm 0.0 W/m2 CLR
20:43 -12.6 °C -13.6 °C 34452.6 hPa Calm     88 % 0 mm 0.0 W/m2 CLR
20:48 -12.5 °C -13.4 °C 34452.6 hPa Calm     89 % 0 mm 0.0 W/m2 CLR
20:53 -12.6 °C -13.6 °C 34452.6 hPa Calm     88 % 0 mm 0.0 W/m2 CLR
20:58 -12.6 °C -13.6 °C 34452.6 hPa West 6 km/h 6 km/h 88 % 0 mm 0.0 W/m2 CLR
21:03 -12.6 °C -13.7 °C 34452.6 hPa Calm     88 % 0 mm 0.0 W/m2 CLR
21:08 -12.7 °C -13.8 °C 34462.7 hPa Calm     88 % 0 mm 0.0 W/m2 CLR
21:13 -12.8 °C -13.8 °C 34462.7 hPa Calm     89 % 0 mm 0.0 W/m2 CLR
21:18 -12.9 °C -13.8 °C 34462.7 hPa Calm     89 % 0 mm 0.0 W/m2 CLR
21:23 -12.9 °C -13.9 °C 34452.6 hPa Calm     89 % 0 mm 0.0 W/m2 CLR
21:28 -12.9 °C -13.9 °C 34452.6 hPa WSW 9 km/h 9 km/h 89 % 0 mm 0.0 W/m2 CLR
21:33 -12.9 °C -13.8 °C 34452.6 hPa SW 6 km/h 6 km/h 90 % 0 mm 0.0 W/m2 CLR
21:38 -12.9 °C -13.8 °C 34452.6 hPa Calm     90 % 0 mm 0.0 W/m2 CLR
21:43 -13 °C -14 °C 34452.6 hPa Calm     89 % 0 mm 0.0 W/m2 CLR
21:48 -13.2 °C -14.1 °C 34452.6 hPa Calm     89 % 0 mm 0.0 W/m2 CLR
21:53 -13.2 °C -14.1 °C 34452.6 hPa Calm     90 % 0 mm 0.0 W/m2 CLR
21:58 -13.2 °C -14.1 °C 34462.7 hPa Calm     90 % 0 mm 0.0 W/m2 CLR
22:03 -13.3 °C -14.2 °C 34452.6 hPa Calm     90 % 0 mm 0.0 W/m2 CLR
22:08 -13.4 °C -14.3 °C 34462.7 hPa Calm     90 % 0 mm 0.0 W/m2 CLR
22:13 -13.4 °C -14.3 °C 34462.7 hPa Calm     90 % 0 mm 0.0 W/m2 CLR
22:18 -13.5 °C -14.3 °C 34452.6 hPa Calm     91 % 0 mm 0.0 W/m2 CLR
22:23 -13.6 °C -14.3 °C 34452.6 hPa Calm     91 % 0 mm 0.0 W/m2 CLR
22:28 -13.7 °C -14.4 °C 34452.6 hPa Calm     91 % 0 mm 0.0 W/m2 CLR
22:33 -13.7 °C -14.4 °C 34452.6 hPa Calm     91 % 0 mm 0.0 W/m2 CLR
22:38 -13.8 °C -14.6 °C 34452.6 hPa Calm     91 % 0 mm 0.0 W/m2 CLR
22:43 -13.8 °C -14.6 °C 34452.6 hPa Calm     91 % 0 mm 0.0 W/m2 CLR
22:48 -13.8 °C -14.5 °C 34462.7 hPa SSW 11.9 km/h 11.9 km/h 92 % 0 mm 0.0 W/m2 CLR
22:53 -13.7 °C -14.3 °C 34452.6 hPa SW 3.1 km/h   92 % 0 mm 0.0 W/m2 CLR
22:58 -13.7 °C -14.5 °C 34452.6 hPa Calm     91 % 0 mm 0.0 W/m2 CLR
23:03 -13.8 °C -14.6 °C 34452.6 hPa Calm     91 % 0 mm 0.0 W/m2 CLR
23:08 -13.8 °C -14.6 °C 34452.6 hPa Calm     92 % 0 mm 0.0 W/m2 CLR
23:13 -13.9 °C -14.6 °C 34452.6 hPa Calm     92 % 0 mm 0.0 W/m2 CLR
23:18 -13.9 °C -14.6 °C 34452.6 hPa Calm     92 % 0 mm 0.0 W/m2 CLR
23:23 -13.9 °C -14.6 °C 34452.6 hPa Calm     92 % 0 mm 0.0 W/m2 CLR
23:28 -14 °C -14.7 °C 34452.6 hPa Calm     92 % 0 mm 0.0 W/m2 CLR
23:33 -14 °C -14.7 °C 34452.6 hPa Calm     92 % 0 mm 0.0 W/m2 CLR
23:38 -14.1 °C -14.7 °C 34452.6 hPa Calm     92 % 0 mm 0.0 W/m2 CLR
23:43 -14.2 °C -14.8 °C 34452.6 hPa Calm     92 % 0 mm 0.0 W/m2 CLR
23:48 -14.2 °C -14.8 °C 34452.6 hPa Calm     92 % 0 mm 0.0 W/m2 CLR
23:53 -14.2 °C -14.9 °C 34452.6 hPa Calm     92 % 0 mm 0.0 W/m2 CLR
23:59 -14.2 °C -14.9 °C 34442.4 hPa Calm     92 % 0 mm 0.0 W/m2 CLR
Lo Temps de Massalio
Compliments of Weather Underground - 1.25 mb